HRHO2: North Canadian River

Data processed at Fri Jan 05 2018 23:24


All information presented herein is the property of the government of the United States of America and may be revised or deleted at any time without prior notice.
Dissemination of this information without the expressed written consent of the Public Affairs Office, Tulsa District U.S. Army Corps of Engineers is strictly prohibited.
These data are gathered electronically and, as presented, have not undergone any form of quality control. These data are not guaranteed to be valid or correct.
Go to home page.
Go to station list.

Upstream stations:

Downstream station:
Previous Day
Next Day
Current Day
    
SHEF ID:       HRHO2     North Canadian River near Harrah
STATION TYPE:  

                STAGE  RIV-FLOW  WTR-TEMP   DIS-OXY        PH   CONDUCT  BAT-LOAD
                   ft       cfs         F      mg/l        su   umho/cm      volt
              Ccp-Rev   Ccp-Rev   Ccp-Rev   Ccp-Rev   Ccp-Rev   Ccp-Rev   Ccp-Rev
(US/Central)
01/03 00:00      4.26        94     32.95     12.48      7.63      1031     12.48
01/03 01:00      4.27        95     32.65     12.48      7.61      1032     12.48
01/03 02:00      4.29        98     32.40     12.48      7.61      1033     12.42
01/03 03:00      4.30       100     32.16     12.51      7.63      1032     12.42
01/03 04:00      4.30       100     32.04     12.51      7.62      1028     12.42
01/03 05:00      4.31       101     31.87     12.53      7.59      1022     12.42
01/03 06:00      4.31       101     31.69     12.54      7.58      1014     12.42
01/03 07:00      4.31       101     31.53     12.56      7.59      1006     12.42
01/03 08:00      4.31       101     31.39     12.60      7.59      1005     12.42
01/03 09:00      4.25        92     31.41     12.71      7.59      1012     12.42
01/03 10:00      4.25        92     31.89     12.79      7.59      1022     12.54
01/03 11:00      4.26        94     32.99     12.86      7.61      1028     12.89
01/03 12:00      4.25        92     34.54     12.81      7.63      1031     13.59
01/03 13:00      4.21        86     36.21     12.77      7.70      1030     13.94
01/03 14:00      4.20        85     37.90     12.72      7.78      1029     13.94
01/03 15:00      4.20        85     39.00     12.64      7.76      1025     13.94
01/03 16:00      4.19        83     39.45     12.54      7.79      1016     13.88
01/03 17:00      4.19        83     39.27     12.45      7.82      1006     13.71
01/03 18:00      4.18        82     38.91     12.26      7.80       996     13.12
01/03 19:00      4.17        81     38.48     12.12      7.78       987     12.77
01/03 20:00      4.16        79     37.98     12.02      7.76       981     12.71
01/03 21:00      4.16        79     37.56     11.93      7.73       976     12.65
01/03 22:00      4.17        81     37.22     11.85      7.71       973     12.60
01/03 23:00      4.19        83     36.93     11.76      7.72       971     12.60